Terminal Aerodrome Forecast
Issued by NWS

Home | Current Version | Previous Version | Graphics & Text | Print | Product List | Glossary On
Versions: 1 2 3 4 5 6 7 8 9 10 11 12 13 14 15 16 17 18 19 20 21 22 23 24 25 26 27 28 29 30 31 32 33 34 35
000
FTUS43 KLOT 291741
TAFMDW
TAF
KMDW 291741Z 2918/3018 20013G20KT P6SM VCSH SCT050 BKN070 BKN100
     FM292000 21014G21KT P6SM VCTS BKN040CB
     FM292200 21014G21KT P6SM SCT045
     FM300000 21008KT P6SM SCT045 BKN250
     FM300600 23008KT P6SM VCSH BKN045
     FM301000 35008KT 4SM SHRA SCT020 OVC040
     FM301400 02015G27KT 3SM RA OVC007=

USA.gov is the U.S. government's official web portal to all federal, state and local government web resources and services.